This is the latest recevied weather packets stored in our database for station/object K9ABJ. If no packets are shown the sender has not sent any weather packets the latest 10 day(s).
| Time | Temp. | Humidity | Pressure | Rain* | Wind** | Luminosity | Snow |
|---|---|---|---|---|---|---|---|
| 1787669856 | 21.67° C | 72% | 1021.1 hPa | 0 mm | - | 339 W/m² | - |
| 1787669552 | 21.11° C | 75% | 1020.8 hPa | 0 mm | - | 367 W/m² | - |
| 1787669247 | 21.67° C | 72% | 1020.8 hPa | 0 mm | - | 504 W/m² | - |
| 1787668943 | 22.22° C | 70% | 1021.1 hPa | 0 mm | - | 593 W/m² | - |
| 1787668639 | 23.33° C | 68% | 1021.1 hPa | 0 mm | - | 569 W/m² | - |
| 1787668335 | 22.78° C | 68% | 1021 hPa | 0 mm | - | 449 W/m² | - |
| 1787668034 | 23.89° C | 68% | 1020.9 hPa | 0 mm | - | 265 W/m² | - |
| 1787667730 | 22.78° C | 70% | 1020.9 hPa | 0 mm | - | 247 W/m² | - |
| 1787667425 | 21.67° C | 73% | 1020.9 hPa | 0 mm | - | 265 W/m² | - |
| 1787667121 | 21.11° C | 75% | 1020.9 hPa | 0 mm | - | 361 W/m² | - |
| 1787666815 | 20.56° C | 77% | 1020.7 hPa | 0 mm | - | 388 W/m² | - |
| 1787666511 | 20° C | 76% | 1020.9 hPa | 0 mm | - | 324 W/m² | - |
| 1787666206 | 20.56° C | 76% | 1020.9 hPa | 0 mm | - | 350 W/m² | - |
| 1787665902 | 20.56° C | 76% | 1020.9 hPa | 0 mm | - | 462 W/m² | - |
| 1787665597 | 20° C | 76% | 1020.6 hPa | 0 mm | - | 327 W/m² | - |
| 1787665297 | 20° C | 77% | 1020.7 hPa | 0 mm | - | 443 W/m² | - |
| 1787664993 | 20° C | 76% | 1020.7 hPa | 0 mm | - | 322 W/m² | - |
| 1787664689 | 20.56° C | 75% | 1020.6 hPa | 0 mm | - | 361 W/m² | - |
| 1787664388 | 20° C | 78% | 1020.6 hPa | 0 mm | - | 831 W/m² | - |
| 1787664084 | 18.89° C | 80% | 1020.8 hPa | 0 mm | - | 431 W/m² | - |
| 1787663778 | 18.89° C | 79% | 1021 hPa | 0 mm | - | 247 W/m² | - |
| 1787663473 | 18.89° C | 80% | 1020.9 hPa | 0 mm | - | 219 W/m² | - |
| 1787663169 | 17.78° C | 86% | 1021 hPa | 0 mm | - | 166 W/m² | - |
| 1787662865 | 18.33° C | 87% | 1020.7 hPa | 0 mm | - | 159 W/m² | - |
| 1787662565 | 17.22° C | 91% | 1020.6 hPa | 0 mm | - | 152 W/m² | - |
* Rain latest hour (hover to see other rain measurements)
** Current wind speed in m/s (hover to see current wind gust speed)